createdAt,value
2022-11-29T00:00:45.433Z,5.50
2022-11-29T00:03:12.187Z,5.47
2022-11-29T00:05:38.943Z,6.10
2022-11-29T00:08:05.797Z,5.57
2022-11-29T00:10:32.405Z,5.50
2022-11-29T00:12:59.042Z,6.40
2022-11-29T00:15:25.669Z,5.93
2022-11-29T00:17:52.330Z,5.90
2022-11-29T00:20:18.980Z,5.40
2022-11-29T00:22:45.628Z,6.00
2022-11-29T00:25:12.279Z,5.60
2022-11-29T00:27:38.929Z,5.77
2022-11-29T00:30:06.368Z,5.67
2022-11-29T00:32:33.016Z,5.30
2022-11-29T00:34:59.938Z,5.83
2022-11-29T00:37:27.949Z,5.10
2022-11-29T00:39:54.646Z,5.03
2022-11-29T00:42:21.288Z,5.40
2022-11-29T00:44:47.883Z,5.50
2022-11-29T00:47:14.550Z,5.53
2022-11-29T00:49:41.918Z,5.90
2022-11-29T00:52:10.820Z,5.20
2022-11-29T00:54:37.460Z,5.60
2022-11-29T00:57:04.205Z,5.57
2022-11-29T00:59:30.887Z,5.70
2022-11-29T01:01:57.616Z,5.90
2022-11-29T01:04:24.438Z,5.93
2022-11-29T01:06:52.119Z,5.30
2022-11-29T01:09:19.068Z,5.40
2022-11-29T01:11:45.857Z,5.73
2022-11-29T01:14:12.726Z,5.60
2022-11-29T01:16:39.479Z,5.60
2022-11-29T01:19:07.305Z,5.40
2022-11-29T01:21:34.498Z,5.33
2022-11-29T01:24:01.794Z,5.70
2022-11-29T01:26:29.685Z,5.30
2022-11-29T01:28:57.830Z,5.13
2022-11-29T01:31:38.117Z,5.13
2022-11-29T01:34:06.368Z,5.00
2022-11-29T01:36:33.539Z,5.33
2022-11-29T01:39:01.798Z,5.00
2022-11-29T01:41:31.445Z,5.20
2022-11-29T01:44:11.343Z,5.23
2022-11-29T01:46:40.451Z,5.20
2022-11-29T01:49:20.761Z,4.83
2022-11-29T01:52:06.736Z,4.83
2022-11-29T01:54:36.718Z,5.20
2022-11-29T01:57:06.006Z,4.67
2022-11-29T01:59:33.152Z,4.63
2022-11-29T02:02:14.282Z,5.03
2022-11-29T02:04:42.911Z,5.30
2022-11-29T02:07:09.918Z,4.90
2022-11-29T02:09:36.637Z,4.73
2022-11-29T02:12:22.172Z,4.97
2022-11-29T02:14:53.970Z,4.63
2022-11-29T02:17:45.991Z,5.17
2022-11-29T02:20:30.858Z,4.83
2022-11-29T02:23:25.271Z,4.73
2022-11-29T02:26:29.553Z,4.47
2022-11-29T02:29:17.918Z,4.43
2022-11-29T02:31:56.421Z,4.27
2022-11-29T02:34:58.456Z,4.97
2022-11-29T02:37:41.489Z,4.30
2022-11-29T02:40:20.134Z,4.67
2022-11-29T02:42:56.843Z,4.70
2022-11-29T02:45:38.161Z,4.90
2022-11-29T02:48:09.644Z,4.40
2022-11-29T02:50:45.748Z,4.47
2022-11-29T02:53:32.067Z,4.40
2022-11-29T02:56:10.840Z,4.03
2022-11-29T02:58:42.224Z,4.70
2022-11-29T03:01:24.027Z,4.23
2022-11-29T03:04:15.611Z,4.27
2022-11-29T03:07:06.306Z,4.33
2022-11-29T03:10:04.510Z,4.10
2022-11-29T03:12:45.914Z,4.27
2022-11-29T03:15:24.988Z,4.60
2022-11-29T03:18:21.081Z,4.50
2022-11-29T03:21:06.192Z,4.10
2022-11-29T03:23:45.626Z,3.80
2022-11-29T03:26:37.944Z,3.90
2022-11-29T03:29:15.590Z,4.00
2022-11-29T03:31:50.028Z,4.40
2022-11-29T03:34:30.011Z,4.00
2022-11-29T03:37:12.741Z,4.00
2022-11-29T03:39:52.315Z,3.80
2022-11-29T03:42:38.299Z,4.03
2022-11-29T03:45:15.375Z,4.10
2022-11-29T03:48:04.978Z,4.27
2022-11-29T03:50:39.507Z,4.10
2022-11-29T03:53:28.286Z,3.83
2022-11-29T03:56:00.782Z,4.07
2022-11-29T03:58:38.865Z,3.80
2022-11-29T04:01:30.257Z,3.80
2022-11-29T04:04:11.998Z,3.70
2022-11-29T04:06:56.138Z,3.67
2022-11-29T04:09:24.458Z,3.80
2022-11-29T04:12:21.219Z,3.80
2022-11-29T04:15:25.645Z,3.57
2022-11-29T04:17:52.268Z,3.30
2022-11-29T04:20:53.495Z,3.70
2022-11-29T04:23:42.068Z,3.50
2022-11-29T04:26:36.701Z,3.67
2022-11-29T04:29:18.644Z,3.80
2022-11-29T04:32:19.826Z,3.47
2022-11-29T04:35:04.705Z,3.57
2022-11-29T04:38:01.971Z,3.47
2022-11-29T04:40:56.042Z,3.30
2022-11-29T04:43:34.817Z,3.53
2022-11-29T04:46:32.522Z,3.30
2022-11-29T04:49:09.705Z,3.17
2022-11-29T04:52:02.936Z,3.30
2022-11-29T04:54:43.502Z,3.00
2022-11-29T04:57:35.703Z,3.37
2022-11-29T05:00:23.039Z,3.10
2022-11-29T05:02:55.918Z,2.87
2022-11-29T05:05:40.668Z,2.90
2022-11-29T05:08:38.347Z,2.50
2022-11-29T05:11:29.527Z,2.50
2022-11-29T05:14:24.149Z,2.63
2022-11-29T05:16:54.895Z,2.77
2022-11-29T05:19:35.111Z,2.70
2022-11-29T05:22:01.726Z,2.40
2022-11-29T05:24:46.675Z,2.70
2022-11-29T05:28:01.712Z,2.50
2022-11-29T05:31:02.832Z,2.50
2022-11-29T05:33:56.495Z,2.43
2022-11-29T05:36:32.167Z,2.23
2022-11-29T05:39:01.834Z,2.40
2022-11-29T05:41:59.775Z,2.33
2022-11-29T05:44:42.096Z,1.87
2022-11-29T05:47:10.199Z,2.20
2022-11-29T05:50:10.298Z,2.17
2022-11-29T05:53:02.640Z,2.20
2022-11-29T05:55:41.168Z,2.10
2022-11-29T05:58:28.610Z,2.00
2022-11-29T06:01:24.582Z,2.00
2022-11-29T06:04:03.278Z,2.10
2022-11-29T06:06:39.584Z,1.90
2022-11-29T06:09:32.299Z,1.90
2022-11-29T06:12:14.900Z,2.10
2022-11-29T06:14:59.084Z,2.40
2022-11-29T06:17:42.090Z,2.10
2022-11-29T06:20:29.812Z,2.17
2022-11-29T06:23:31.314Z,1.97
2022-11-29T06:26:05.259Z,2.37
2022-11-29T06:28:54.877Z,1.80
2022-11-29T06:31:45.113Z,2.00
2022-11-29T06:34:47.595Z,2.10
2022-11-29T06:37:23.907Z,2.00
2022-11-29T06:39:52.335Z,2.10
2022-11-29T06:42:19.107Z,2.37
2022-11-29T06:44:46.682Z,2.00
2022-11-29T06:47:23.835Z,2.37
2022-11-29T06:50:13.460Z,2.47
2022-11-29T06:52:49.690Z,2.13
2022-11-29T06:55:52.028Z,2.20
2022-11-29T06:58:41.899Z,2.40
2022-11-29T07:01:33.668Z,2.40
2022-11-29T07:04:09.423Z,2.13
2022-11-29T07:06:36.353Z,2.10
2022-11-29T07:09:14.645Z,2.47
2022-11-29T07:11:42.274Z,2.20
2022-11-29T07:14:09.906Z,2.47
2022-11-29T07:17:26.221Z,2.67
2022-11-29T07:20:14.645Z,3.23
2022-11-29T07:23:10.570Z,2.87
2022-11-29T07:25:56.109Z,3.13
2022-11-29T07:29:08.118Z,3.30
2022-11-29T07:32:16.265Z,3.20
2022-11-29T07:35:03.613Z,3.40
2022-11-29T07:37:39.418Z,3.37
2022-11-29T07:40:15.958Z,3.33
2022-11-29T07:42:48.879Z,3.20
2022-11-29T07:45:33.936Z,3.00
2022-11-29T07:48:00.623Z,2.90
2022-11-29T07:50:27.949Z,3.30
2022-11-29T07:52:55.669Z,3.20
2022-11-29T07:55:24.667Z,3.00
2022-11-29T07:57:51.818Z,3.13
2022-11-29T08:00:19.706Z,3.03
2022-11-29T08:02:47.227Z,3.20
2022-11-29T08:05:13.895Z,2.73
2022-11-29T08:07:41.342Z,2.80
2022-11-29T08:10:13.526Z,2.83
2022-11-29T08:12:48.688Z,2.80
2022-11-29T08:15:15.968Z,2.80
2022-11-29T08:17:45.404Z,3.13
2022-11-29T08:20:14.147Z,2.90
2022-11-29T08:22:40.930Z,2.70
2022-11-29T08:25:08.563Z,2.77
2022-11-29T08:27:36.538Z,2.53
2022-11-29T08:30:04.716Z,2.50
2022-11-29T08:32:31.388Z,2.50
2022-11-29T08:34:58.086Z,2.40
2022-11-29T08:37:24.739Z,2.60
2022-11-29T08:39:51.393Z,2.20
2022-11-29T08:42:18.115Z,2.43
2022-11-29T08:44:44.946Z,2.60
2022-11-29T08:47:30.315Z,2.33
2022-11-29T08:50:02.965Z,2.30
2022-11-29T08:52:49.840Z,2.10
2022-11-29T08:55:17.654Z,2.40
2022-11-29T08:57:44.391Z,2.53
2022-11-29T09:00:12.032Z,2.23
2022-11-29T09:02:38.927Z,2.30
2022-11-29T09:05:07.022Z,2.63
2022-11-29T09:07:33.755Z,2.20
2022-11-29T09:10:04.997Z,2.50
2022-11-29T09:12:35.596Z,2.30
2022-11-29T09:15:04.431Z,2.40
2022-11-29T09:17:31.151Z,2.20
2022-11-29T09:19:57.809Z,2.50
2022-11-29T09:22:24.453Z,2.27
2022-11-29T09:24:51.107Z,3.13
2022-11-29T09:27:17.829Z,2.80
2022-11-29T09:29:44.515Z,2.90
2022-11-29T09:32:11.255Z,2.70
2022-11-29T09:34:37.962Z,3.57
2022-11-29T09:37:06.098Z,3.50
2022-11-29T09:39:32.825Z,3.10
2022-11-29T09:42:18.078Z,3.83
2022-11-29T09:44:53.597Z,4.40
2022-11-29T09:47:26.196Z,3.50
2022-11-29T09:50:09.257Z,3.40
2022-11-29T09:53:13.842Z,3.90
2022-11-29T09:55:55.997Z,4.20
2022-11-29T09:58:26.399Z,3.90
2022-11-29T10:01:00.245Z,4.33
2022-11-29T10:03:31.857Z,4.87
2022-11-29T10:06:42.165Z,5.50
2022-11-29T10:09:26.612Z,4.87
2022-11-29T10:12:23.958Z,4.93
2022-11-29T10:14:59.212Z,5.00
2022-11-29T10:17:36.524Z,4.87
2022-11-29T10:20:27.664Z,4.87
2022-11-29T10:23:02.816Z,4.63
2022-11-29T10:25:36.366Z,5.00
2022-11-29T10:28:04.682Z,4.97
2022-11-29T10:30:33.315Z,4.90
2022-11-29T10:33:00.729Z,5.00
2022-11-29T10:35:27.578Z,4.87
2022-11-29T10:38:29.122Z,4.97
2022-11-29T10:40:49.492Z,4.60
2022-11-29T10:43:16.165Z,4.77
2022-11-29T10:45:53.423Z,5.03
2022-11-29T10:48:21.703Z,4.40
2022-11-29T10:50:49.845Z,5.23
2022-11-29T10:53:39.869Z,4.80
2022-11-29T10:56:14.248Z,4.77
2022-11-29T10:58:58.823Z,5.07
2022-11-29T11:01:28.867Z,4.77
2022-11-29T11:03:56.390Z,4.87
2022-11-29T11:06:41.250Z,4.93
2022-11-29T11:09:24.826Z,5.17
2022-11-29T11:11:57.378Z,4.90
2022-11-29T11:14:28.255Z,4.97
2022-11-29T11:16:55.056Z,5.10
2022-11-29T11:19:32.193Z,5.43
2022-11-29T11:22:01.168Z,5.30
2022-11-29T11:24:33.283Z,5.47
2022-11-29T11:27:00.871Z,5.73
2022-11-29T11:29:51.686Z,5.70
2022-11-29T11:32:19.824Z,5.33
2022-11-29T11:34:58.979Z,5.57
2022-11-29T11:37:28.535Z,5.17
2022-11-29T11:39:57.998Z,5.50
2022-11-29T11:42:37.399Z,4.93
2022-11-29T11:45:13.029Z,4.30
2022-11-29T11:47:45.178Z,4.90
2022-11-29T11:50:14.431Z,4.60
2022-11-29T11:52:50.671Z,4.70
2022-11-29T11:55:37.018Z,4.40
2022-11-29T11:58:14.893Z,4.50
2022-11-29T12:01:03.892Z,4.43
2022-11-29T12:03:55.621Z,4.13
2022-11-29T12:06:34.114Z,3.93
2022-11-29T12:09:29.803Z,4.10
2022-11-29T12:12:14.446Z,4.10
2022-11-29T12:14:57.271Z,4.07
2022-11-29T12:17:49.173Z,3.80
2022-11-29T12:20:36.563Z,3.80
2022-11-29T12:23:14.468Z,3.60
2022-11-29T12:25:57.602Z,4.10
2022-11-29T12:28:33.275Z,4.00
2022-11-29T12:31:37.979Z,3.60
2022-11-29T12:34:28.752Z,4.10
2022-11-29T12:37:21.845Z,3.90
2022-11-29T12:40:05.745Z,3.97
2022-11-29T12:43:11.021Z,3.93
2022-11-29T12:46:05.518Z,3.87
2022-11-29T12:48:42.486Z,3.70
2022-11-29T12:51:32.051Z,4.23
2022-11-29T12:54:15.901Z,4.30
2022-11-29T12:57:04.173Z,3.90
2022-11-29T13:00:01.321Z,3.87
2022-11-29T13:03:06.400Z,4.00
2022-11-29T13:05:57.025Z,3.70
2022-11-29T13:08:32.846Z,4.30
2022-11-29T13:11:27.644Z,3.77
2022-11-29T13:17:39.366Z,3.80
2022-11-29T13:20:31.379Z,3.90
2022-11-29T13:23:01.146Z,3.70
2022-11-29T13:25:33.398Z,4.00
2022-11-29T13:28:06.860Z,4.13
2022-11-29T13:30:37.488Z,4.00
2022-11-29T13:33:39.594Z,4.10
2022-11-29T13:36:28.637Z,3.77
2022-11-29T13:39:14.803Z,3.83
2022-11-29T13:41:48.395Z,3.80
2022-11-29T13:44:21.336Z,3.73
2022-11-29T13:47:08.572Z,3.50
2022-11-29T13:49:53.047Z,3.73
2022-11-29T13:52:42.874Z,3.60
2022-11-29T13:55:12.647Z,3.73
2022-11-29T14:00:45.690Z,3.40
2022-11-29T14:03:31.851Z,3.57
2022-11-29T14:06:01.480Z,3.77
2022-11-29T14:08:54.669Z,3.67
2022-11-29T14:11:26.580Z,3.63
2022-11-29T14:14:27.357Z,3.60
2022-11-29T14:17:01.438Z,3.67
2022-11-29T14:19:36.428Z,3.27
2022-11-29T14:22:03.241Z,3.90
2022-11-29T14:24:33.197Z,3.50
2022-11-29T14:27:06.168Z,3.33
2022-11-29T14:29:48.305Z,3.70
2022-11-29T14:32:38.409Z,3.60
2022-11-29T14:35:11.237Z,3.50
2022-11-29T14:37:56.824Z,3.40
2022-11-29T14:40:26.673Z,3.33
2022-11-29T14:42:53.802Z,3.50
2022-11-29T14:45:25.874Z,3.60
2022-11-29T14:47:52.659Z,2.90
2022-11-29T14:50:39.756Z,3.17
2022-11-29T14:53:07.774Z,3.57
2022-11-29T14:55:36.961Z,2.93
2022-11-29T14:58:06.466Z,3.00
2022-11-29T15:00:33.141Z,3.30
2022-11-29T15:03:27.940Z,3.20
2022-11-29T15:06:17.172Z,2.80
2022-11-29T15:08:52.728Z,3.30
2022-11-29T15:11:38.095Z,3.10
2022-11-29T15:14:07.807Z,3.30
2022-11-29T15:16:56.456Z,2.93
2022-11-29T15:19:52.309Z,3.10
2022-11-29T15:22:22.766Z,2.90
2022-11-29T15:24:58.380Z,2.93
2022-11-29T15:27:25.266Z,2.90
2022-11-29T15:29:52.877Z,2.90
2022-11-29T15:32:25.631Z,3.10
2022-11-29T15:34:54.379Z,3.27
2022-11-29T15:37:30.932Z,3.13
2022-11-29T15:40:22.421Z,3.07
2022-11-29T15:42:54.018Z,2.93
2022-11-29T15:45:32.678Z,2.87
2022-11-29T15:48:23.185Z,3.57
2022-11-29T15:51:19.357Z,3.23
2022-11-29T15:54:13.304Z,3.07
2022-11-29T15:56:43.092Z,3.13
2022-11-29T15:59:26.513Z,2.80
2022-11-29T16:01:55.982Z,3.00
2022-11-29T16:04:24.393Z,3.20
2022-11-29T16:06:51.936Z,3.30
2022-11-29T16:09:22.444Z,2.97
2022-11-29T16:11:49.308Z,3.17
2022-11-29T16:14:18.701Z,2.70
2022-11-29T16:16:47.216Z,3.23
2022-11-29T16:19:31.187Z,2.87
2022-11-29T16:22:13.156Z,2.93
2022-11-29T16:24:47.041Z,3.33
2022-11-29T16:27:14.545Z,3.03
2022-11-29T16:29:45.493Z,3.20
2022-11-29T16:32:13.701Z,3.10
2022-11-29T16:34:42.817Z,3.30
2022-11-29T16:37:25.051Z,3.10
2022-11-29T16:39:57.097Z,3.70
2022-11-29T16:42:26.798Z,3.30
2022-11-29T16:44:58.069Z,3.13
2022-11-29T16:47:27.263Z,3.30
2022-11-29T16:50:03.321Z,3.40
2022-11-29T16:52:32.534Z,3.53
2022-11-29T16:54:59.553Z,3.43
2022-11-29T16:57:27.868Z,3.07
2022-11-29T16:59:54.777Z,3.60
2022-11-29T17:02:21.690Z,3.23
2022-11-29T17:04:50.832Z,3.67
2022-11-29T17:07:30.134Z,3.37
2022-11-29T17:09:57.316Z,3.63
2022-11-29T17:12:24.273Z,3.73
2022-11-29T17:14:54.009Z,4.43
2022-11-29T17:17:20.818Z,4.23
2022-11-29T17:19:47.563Z,4.20
2022-11-29T17:22:14.443Z,4.23
2022-11-29T17:24:47.495Z,3.97
2022-11-29T17:27:14.971Z,4.20
2022-11-29T17:29:41.813Z,4.57
2022-11-29T17:32:08.795Z,4.87
2022-11-29T17:34:35.660Z,4.90
2022-11-29T17:37:02.472Z,5.00
2022-11-29T17:39:29.234Z,5.10
2022-11-29T17:41:55.981Z,4.90
2022-11-29T17:44:22.919Z,4.50
2022-11-29T17:46:49.712Z,4.60
2022-11-29T17:49:19.010Z,4.97
2022-11-29T17:51:53.865Z,5.33
2022-11-29T17:54:21.592Z,5.13
2022-11-29T17:56:48.505Z,4.77
2022-11-29T17:59:15.298Z,5.50
2022-11-29T18:01:42.065Z,5.27
2022-11-29T18:04:08.814Z,5.50
2022-11-29T18:06:40.380Z,5.83
2022-11-29T18:09:08.764Z,5.37
2022-11-29T18:11:49.013Z,5.77
2022-11-29T18:14:19.741Z,5.47
2022-11-29T18:16:46.634Z,6.03
2022-11-29T18:19:16.493Z,6.00
2022-11-29T18:21:43.414Z,6.20
2022-11-29T18:24:10.784Z,5.90
2022-11-29T18:26:38.365Z,5.80
2022-11-29T18:29:05.921Z,6.50
2022-11-29T18:31:35.406Z,6.37
2022-11-29T18:34:06.942Z,6.67
2022-11-29T18:36:35.785Z,6.57
2022-11-29T18:39:05.301Z,6.50
2022-11-29T18:41:32.885Z,6.33
2022-11-29T18:44:05.303Z,6.30
2022-11-29T18:46:32.896Z,6.57
2022-11-29T18:49:01.051Z,6.70
2022-11-29T18:51:29.391Z,6.60
2022-11-29T18:53:56.404Z,7.53
2022-11-29T18:56:24.563Z,6.70
2022-11-29T18:58:59.493Z,7.00
2022-11-29T19:01:28.211Z,7.20
2022-11-29T19:03:57.574Z,6.67
2022-11-29T19:06:26.890Z,7.67
2022-11-29T19:08:54.660Z,7.23
2022-11-29T19:11:23.080Z,7.43
2022-11-29T19:13:56.186Z,7.10
2022-11-29T19:16:24.269Z,7.80
2022-11-29T19:18:53.167Z,7.67
2022-11-29T19:21:21.123Z,8.23
2022-11-29T19:23:53.473Z,7.80
2022-11-29T19:26:21.002Z,7.80
2022-11-29T19:28:48.043Z,7.33
2022-11-29T19:31:16.034Z,7.90
2022-11-29T19:33:44.717Z,7.17
2022-11-29T19:36:16.720Z,7.80
2022-11-29T19:38:46.530Z,7.83
2022-11-29T19:41:21.759Z,8.43
2022-11-29T19:43:49.119Z,7.73
2022-11-29T19:46:18.140Z,8.37
2022-11-29T19:48:45.195Z,8.03
2022-11-29T19:51:13.176Z,8.33
2022-11-29T19:53:40.287Z,7.80
2022-11-29T19:56:08.718Z,7.43
2022-11-29T19:58:35.361Z,8.27
2022-11-29T20:01:40.221Z,8.07
2022-11-29T20:04:08.138Z,7.47
2022-11-29T20:06:35.013Z,7.73
2022-11-29T20:09:02.214Z,7.90
2022-11-29T20:11:29.175Z,7.40
2022-11-29T20:14:01.264Z,8.13
2022-11-29T20:16:29.264Z,8.50
2022-11-29T20:18:56.809Z,8.07
2022-11-29T20:21:29.150Z,7.37
2022-11-29T20:23:57.648Z,8.03
2022-11-29T20:26:24.829Z,8.00
2022-11-29T20:28:51.598Z,8.20
2022-11-29T20:31:22.587Z,8.00
2022-11-29T20:33:51.157Z,7.30
2022-11-29T20:36:47.124Z,8.10
2022-11-29T20:39:19.642Z,8.20
2022-11-29T20:41:49.428Z,8.03
2022-11-29T20:44:39.338Z,7.43
2022-11-29T20:47:14.306Z,7.43
2022-11-29T20:49:41.109Z,7.77
2022-11-29T20:52:19.421Z,8.00
2022-11-29T20:54:46.095Z,7.80
2022-11-29T20:57:12.767Z,7.33
2022-11-29T20:59:39.387Z,8.27
2022-11-29T21:02:06.226Z,7.73
2022-11-29T21:04:32.879Z,7.80
2022-11-29T21:06:59.530Z,8.07
2022-11-29T21:09:26.686Z,8.20
2022-11-29T21:11:55.426Z,8.07
2022-11-29T21:14:22.436Z,7.80
2022-11-29T21:16:49.442Z,8.13
2022-11-29T21:19:19.842Z,7.90
2022-11-29T21:22:04.698Z,8.67
2022-11-29T21:24:34.081Z,9.00
2022-11-29T21:27:00.893Z,8.17
2022-11-29T21:29:27.804Z,8.57
2022-11-29T21:31:54.659Z,8.80
2022-11-29T21:34:21.944Z,8.60
2022-11-29T21:37:00.985Z,8.57
2022-11-29T21:39:33.388Z,8.33
2022-11-29T21:42:00.039Z,9.23
2022-11-29T21:44:26.709Z,9.07
2022-11-29T21:46:54.000Z,8.93
2022-11-29T21:49:20.711Z,8.83
2022-11-29T21:51:47.373Z,8.67
2022-11-29T21:54:14.026Z,9.03
2022-11-29T21:56:40.745Z,9.07
2022-11-29T21:59:07.376Z,9.40
2022-11-29T22:01:34.239Z,9.07
2022-11-29T22:04:01.131Z,9.63
2022-11-29T22:06:29.361Z,9.73
2022-11-29T22:08:56.142Z,9.70
2022-11-29T22:11:34.248Z,10.13
2022-11-29T22:14:18.741Z,9.77
2022-11-29T22:16:50.172Z,10.00
2022-11-29T22:19:23.105Z,9.63
2022-11-29T22:21:51.866Z,9.63
2022-11-29T22:24:20.790Z,9.67
2022-11-29T22:26:48.439Z,9.67
2022-11-29T22:29:15.910Z,9.93
2022-11-29T22:31:44.880Z,10.20
2022-11-29T22:34:11.659Z,9.77
2022-11-29T22:36:39.299Z,10.10
2022-11-29T22:39:07.134Z,9.93
2022-11-29T22:41:35.560Z,10.20
2022-11-29T22:44:02.970Z,10.20
2022-11-29T22:46:29.944Z,10.20
2022-11-29T22:48:57.919Z,10.10
2022-11-29T22:51:27.336Z,10.50
2022-11-29T22:53:55.932Z,10.47
2022-11-29T22:56:23.898Z,10.27
2022-11-29T22:58:50.520Z,10.07
2022-11-29T23:01:19.631Z,10.43
2022-11-29T23:03:48.409Z,10.53
2022-11-29T23:06:17.134Z,11.07
2022-11-29T23:08:44.613Z,10.27
2022-11-29T23:11:13.843Z,10.50
2022-11-29T23:13:41.823Z,10.77
2022-11-29T23:16:10.779Z,11.23
2022-11-29T23:18:39.158Z,11.17
2022-11-29T23:21:12.614Z,10.93
2022-11-29T23:23:39.259Z,10.67
2022-11-29T23:26:07.097Z,9.93
2022-11-29T23:28:34.885Z,10.60
2022-11-29T23:31:01.661Z,11.00
2022-11-29T23:33:28.476Z,11.00
2022-11-29T23:36:06.417Z,10.10
2022-11-29T23:38:33.589Z,10.87
2022-11-29T23:41:00.392Z,11.13
2022-11-29T23:43:31.630Z,10.73
2022-11-29T23:45:58.754Z,11.10
2022-11-29T23:48:26.039Z,10.53
2022-11-29T23:50:52.724Z,11.60
2022-11-29T23:53:19.443Z,11.00
2022-11-29T23:55:47.868Z,10.67
2022-11-29T23:58:14.527Z,11.17
